Archival Weather

Chicago O'Hare International

Chicago, Illinois (KORD)

Report from: Wednesday, February 16, 2022 9:51 PM CST
Current time: Saturday, February 4, 2023 11:28 PM CST

Current weather
Weather history
Weather forecast

Present weatherHeavy rain, mist
Temperature9.4°C (48.9°F)
Dew point7.8°C (46.0°F)
Winds Calm
Visibility3 mi. (4.8 km)
Clouds Ceiling: Broken clouds 1,700 ft. (518 m)
Overcast 2,300 ft. (701 m)
Altimeter29.78 in.Hg (1008 mB)
Precipitiation0.19 in. (5 mm)
Relative humidity90 %
Density altitude-356 ft. (-109 m)
Sea-level pressure100.9 kPa (1009 mB, 29.79 in.Hg)
Remarks Automated weather observing station with precipitation discriminator
Flight conditions Marginal Visual Meteorological Conditions
Raw dataKORD 170351Z 00000KT 3SM +RA BR BKN017 OVC023 09/08 A2978 RMK AO2 SLP087 P0019 T00940078
An unhandled exception has occurred. See browser dev tools for details. Reload 🗙